Huvudsida
METAR-TAF:

METAR-TAF

Flygplatser :

Bahrains internationella flygplats

Bahrain, Bahrain

latitud: 26-16N, longitud: 050-39E, höjd: 2 m

Aktuellt väderrapport

Denna rapport gjordes för 26 minuter sedan, klockan 09:30 UTC
Vind 14 kt från nord/nordväst
Temperatur 40°C
Fuktighet 32%
Tryck 998 hPa
Sikt 10 km eller mer
Inga moln under 1 500 m eller inga cumulonimbus

METAR: OBBI 190930Z 33014KT CAVOK 40/20 Q0998 NOSIG

Tid: 12:56 (09:56 UTC)

Väderprognos

Denna rapport gjordes för 4 timmar och 56 minuter sedan, klockan 05:00 UTC
Prognos gäller från 19 kl. 06 UTC till 20 kl. 12 UTC
Vind 16 kt från nord/nordväst
Sikt 10 km eller mer
Inga moln under 1 500 m eller inga cumulonimbus
Blir
från 19 kl. 14 UTC till 19 kl. 16 UTC
Vind 5 kt från väst/nordväst

TAF: OBBI 190500Z 1906/2012 34016KT CAVOK BECMG 1914/1916 30005KT

Aktuella väderrapporter och prognoser från 4000 flygplatser (METAR- och TAF-rapporter).

De tillgängliga stationerna syns som gula och röda prickar på kartan.

För musen över prickarna för att se namnen på stationerna.

Klicka sedan för att få väderrapporter och prognoser.

För att ändra kartan: Klicka på de gröna knapparna med ett svart kors på för att zooma in; den gröna knappen med ett streck på för att zooma ut; eller på de gröna pilarna för angränsande kartor.


METAR-TAF: